AAL3924 KORD-KMSN
Flight info
| Callsign | AAL3924 |
|---|---|
| Flight time | 0h 30m |
| Altitude | 20000 |
| Route | PMPKN NEATO DLLAN/N0391F190 RONIC/N0386F180 BAE |
| Aircraft | A319/M-SDE3FGHIRWY/LB1 |
Departure
| Time | 2026-04-20 02:18 |
|---|---|
| Airport | Chicago O'Hare International Airport (KORD) |
Arrival
| Time | 2026-04-20 02:48 |
|---|---|
| Airport | Dane County Regional Truax Field (KMSN) |
| Time | Latitude | Longitude | Altitude | Speed | Heading |
|---|---|---|---|---|---|
| 2026-04-20 01:52 | 41.97832 | -87.89617 | 655 ft | 0 kts | 334° |
| 2026-04-20 02:09 | 41.97830 | -87.89616 | 655 ft | 1 kts | 333° |
| 2026-04-20 02:09 | 41.97818 | -87.89611 | 655 ft | 2 kts | 1° |
| 2026-04-20 02:09 | 41.97804 | -87.89614 | 655 ft | 2 kts | 23° |
| 2026-04-20 02:10 | 41.97793 | -87.89623 | 655 ft | 2 kts | 45° |
| 2026-04-20 02:10 | 41.97786 | -87.89635 | 655 ft | 2 kts | 64° |
| 2026-04-20 02:10 | 41.97783 | -87.89651 | 655 ft | 1 kts | 85° |
| 2026-04-20 02:10 | 41.97782 | -87.89658 | 655 ft | 1 kts | 95° |
| 2026-04-20 02:11 | 41.97783 | -87.89665 | 655 ft | 0 kts | 90° |
| 2026-04-20 02:12 | 41.97783 | -87.89661 | 655 ft | 1 kts | 90° |
| 2026-04-20 02:13 | 41.97782 | -87.89642 | 655 ft | 4 kts | 90° |
| 2026-04-20 02:13 | 41.97782 | -87.89599 | 655 ft | 7 kts | 90° |
| 2026-04-20 02:13 | 41.97764 | -87.89538 | 655 ft | 10 kts | 149° |
| 2026-04-20 02:13 | 41.97703 | -87.89526 | 655 ft | 12 kts | 179° |
| 2026-04-20 02:14 | 41.97625 | -87.89525 | 655 ft | 14 kts | 180° |
| 2026-04-20 02:14 | 41.97536 | -87.89524 | 655 ft | 16 kts | 179° |
| 2026-04-20 02:14 | 41.97440 | -87.89529 | 655 ft | 16 kts | 190° |
| 2026-04-20 02:14 | 41.97359 | -87.89574 | 655 ft | 14 kts | 217° |
| 2026-04-20 02:15 | 41.97302 | -87.89656 | 655 ft | 14 kts | 238° |
| 2026-04-20 02:15 | 41.97248 | -87.89715 | 656 ft | 10 kts | 181° |
| 2026-04-20 02:15 | 41.97190 | -87.89670 | 655 ft | 12 kts | 143° |
| 2026-04-20 02:15 | 41.97124 | -87.89593 | 655 ft | 13 kts | 128° |
| 2026-04-20 02:16 | 41.97082 | -87.89502 | 655 ft | 12 kts | 115° |
| 2026-04-20 02:16 | 41.97036 | -87.89442 | 655 ft | 0 kts | 164° |
| 2026-04-20 02:16 | 41.97035 | -87.89442 | 655 ft | 0 kts | 176° |
| 2026-04-20 02:16 | 41.97033 | -87.89452 | 655 ft | 3 kts | 270° |
| 2026-04-20 02:17 | 41.97033 | -87.89490 | 655 ft | 5 kts | 266° |
| 2026-04-20 02:17 | 41.97018 | -87.89537 | 655 ft | 7 kts | 226° |
| 2026-04-20 02:17 | 41.96973 | -87.89559 | 654 ft | 10 kts | 182° |
| 2026-04-20 02:17 | 41.96911 | -87.89589 | 653 ft | 12 kts | 249° |
| 2026-04-20 02:18 | 41.96905 | -87.89763 | 655 ft | 48 kts | 270° |
| 2026-04-20 02:18 | 41.96905 | -87.90414 | 665 ft | 111 kts | 269° |
| 2026-04-20 02:18 | 41.96905 | -87.91509 | 715 ft | 157 kts | 270° |
| 2026-04-20 02:18 | 41.96908 | -87.92786 | 1343 ft | 154 kts | 273° |
| 2026-04-20 02:19 | 41.96905 | -87.94012 | 2076 ft | 150 kts | 275° |
| 2026-04-20 02:19 | 41.97037 | -87.95131 | 2763 ft | 140 kts | 298° |
| 2026-04-20 02:19 | 41.97483 | -87.96054 | 3305 ft | 140 kts | 314° |
| 2026-04-20 02:19 | 41.98186 | -87.96674 | 3692 ft | 152 kts | 351° |
| 2026-04-20 02:20 | 41.99111 | -87.96580 | 4113 ft | 167 kts | 6° |
| 2026-04-20 02:20 | 42.00077 | -87.96358 | 4548 ft | 179 kts | 5° |
| 2026-04-20 02:20 | 42.01150 | -87.96159 | 4977 ft | 193 kts | 3° |
| 2026-04-20 02:20 | 42.02472 | -87.95963 | 5472 ft | 209 kts | 2° |
| 2026-04-20 02:21 | 42.05165 | -87.95656 | 6376 ft | 243 kts | 1° |
| 2026-04-20 02:21 | 42.06619 | -87.95512 | 6947 ft | 254 kts | 0° |
| 2026-04-20 02:21 | 42.08102 | -87.95370 | 7712 ft | 258 kts | 360° |
| 2026-04-20 02:22 | 42.09668 | -87.95223 | 8564 ft | 260 kts | 359° |
| 2026-04-20 02:22 | 42.11251 | -87.95077 | 9420 ft | 262 kts | 358° |
| 2026-04-20 02:22 | 42.12824 | -87.94938 | 10259 ft | 264 kts | 358° |
| 2026-04-20 02:22 | 42.14443 | -87.94798 | 10907 ft | 273 kts | 358° |
| 2026-04-20 02:23 | 42.16166 | -87.94656 | 11373 ft | 288 kts | 358° |
| 2026-04-20 02:23 | 42.18003 | -87.94504 | 11808 ft | 303 kts | 358° |
| 2026-04-20 02:23 | 42.19867 | -87.94346 | 12194 ft | 318 kts | 358° |
| 2026-04-20 02:23 | 42.21858 | -87.94175 | 12554 ft | 333 kts | 358° |
| 2026-04-20 02:24 | 42.23906 | -87.93998 | 12996 ft | 343 kts | 358° |
| 2026-04-20 02:24 | 42.25998 | -87.93812 | 13696 ft | 346 kts | 358° |
| 2026-04-20 02:24 | 42.28079 | -87.93626 | 14408 ft | 347 kts | 357° |
| 2026-04-20 02:24 | 42.30123 | -87.93536 | 15079 ft | 347 kts | 354° |
| 2026-04-20 02:25 | 42.32143 | -87.93585 | 15725 ft | 346 kts | 351° |
| 2026-04-20 02:25 | 42.34163 | -87.93762 | 16367 ft | 345 kts | 349° |
| 2026-04-20 02:25 | 42.36153 | -87.93990 | 17014 ft | 345 kts | 348° |
| 2026-04-20 02:25 | 42.38213 | -87.94236 | 17639 ft | 345 kts | 348° |
| 2026-04-20 02:26 | 42.40242 | -87.94480 | 18221 ft | 346 kts | 348° |
| 2026-04-20 02:26 | 42.42287 | -87.94724 | 18796 ft | 346 kts | 348° |
| 2026-04-20 02:26 | 42.44358 | -87.94973 | 19374 ft | 347 kts | 347° |
| 2026-04-20 02:26 | 42.46482 | -87.95229 | 19833 ft | 349 kts | 347° |
| 2026-04-20 02:27 | 42.48597 | -87.95486 | 20162 ft | 351 kts | 347° |
| 2026-04-20 02:27 | 42.50733 | -87.95751 | 20248 ft | 351 kts | 348° |
| 2026-04-20 02:27 | 42.52821 | -87.96008 | 20239 ft | 351 kts | 347° |
| 2026-04-20 02:27 | 42.54952 | -87.96271 | 20243 ft | 351 kts | 347° |
| 2026-04-20 02:28 | 42.57054 | -87.96530 | 20255 ft | 351 kts | 347° |
| 2026-04-20 02:28 | 42.59172 | -87.96793 | 20252 ft | 351 kts | 348° |
| 2026-04-20 02:28 | 42.61363 | -87.97062 | 20247 ft | 352 kts | 348° |
| 2026-04-20 02:28 | 42.63541 | -87.97262 | 20248 ft | 354 kts | 349° |
| 2026-04-20 02:29 | 42.65720 | -87.97430 | 20242 ft | 352 kts | 349° |
| 2026-04-20 02:29 | 42.67726 | -87.97905 | 20235 ft | 343 kts | 338° |
| 2026-04-20 02:29 | 42.69603 | -87.98969 | 20248 ft | 339 kts | 328° |
| 2026-04-20 02:29 | 42.71209 | -88.00457 | 20252 ft | 338 kts | 319° |
| 2026-04-20 02:30 | 42.72596 | -88.02378 | 20250 ft | 338 kts | 309° |
| 2026-04-20 02:30 | 42.73706 | -88.04707 | 20249 ft | 341 kts | 300° |
| 2026-04-20 02:30 | 42.74446 | -88.07289 | 20238 ft | 346 kts | 291° |
| 2026-04-20 02:30 | 42.75019 | -88.09997 | 20247 ft | 346 kts | 290° |
| 2026-04-20 02:31 | 42.75580 | -88.12703 | 20248 ft | 345 kts | 291° |
| 2026-04-20 02:31 | 42.76139 | -88.15435 | 20236 ft | 345 kts | 291° |
| 2026-04-20 02:31 | 42.76696 | -88.18170 | 20241 ft | 345 kts | 290° |
| 2026-04-20 02:31 | 42.77238 | -88.20849 | 20256 ft | 345 kts | 290° |
| 2026-04-20 02:32 | 42.77771 | -88.23489 | 20249 ft | 346 kts | 291° |
| 2026-04-20 02:32 | 42.78321 | -88.26218 | 20259 ft | 344 kts | 290° |
| 2026-04-20 02:32 | 42.78871 | -88.28966 | 20250 ft | 345 kts | 291° |
| 2026-04-20 02:32 | 42.79417 | -88.31701 | 20239 ft | 342 kts | 290° |
| 2026-04-20 02:33 | 42.79942 | -88.34347 | 19984 ft | 322 kts | 290° |
| 2026-04-20 02:33 | 42.80452 | -88.36925 | 18937 ft | 320 kts | 291° |
| 2026-04-20 02:33 | 42.80975 | -88.39526 | 17531 ft | 327 kts | 290° |
| 2026-04-20 02:33 | 42.81524 | -88.42250 | 16196 ft | 342 kts | 289° |
| 2026-04-20 02:34 | 42.82101 | -88.45130 | 15167 ft | 349 kts | 289° |
| 2026-04-20 02:34 | 42.82669 | -88.47987 | 14413 ft | 349 kts | 288° |
| 2026-04-20 02:34 | 42.83242 | -88.50894 | 13738 ft | 348 kts | 288° |
| 2026-04-20 02:34 | 42.83821 | -88.53836 | 13096 ft | 345 kts | 288° |
| 2026-04-20 02:35 | 42.84378 | -88.56679 | 12488 ft | 342 kts | 288° |
| 2026-04-20 02:35 | 42.84904 | -88.59360 | 11928 ft | 339 kts | 288° |
| 2026-04-20 02:35 | 42.85435 | -88.62068 | 11369 ft | 336 kts | 288° |
| 2026-04-20 02:35 | 42.85958 | -88.64732 | 10825 ft | 333 kts | 287° |
| 2026-04-20 02:36 | 42.86480 | -88.67409 | 10550 ft | 322 kts | 287° |
| 2026-04-20 02:36 | 42.86972 | -88.69934 | 10426 ft | 308 kts | 287° |
| 2026-04-20 02:36 | 42.87447 | -88.72378 | 10302 ft | 294 kts | 287° |
| 2026-04-20 02:36 | 42.87904 | -88.74721 | 10192 ft | 282 kts | 287° |
| 2026-04-20 02:37 | 42.88338 | -88.76961 | 10106 ft | 269 kts | 287° |
| 2026-04-20 02:37 | 42.88752 | -88.79091 | 10027 ft | 257 kts | 287° |
| 2026-04-20 02:37 | 42.89149 | -88.81136 | 9754 ft | 254 kts | 287° |
| 2026-04-20 02:37 | 42.89549 | -88.83187 | 9368 ft | 255 kts | 288° |
| 2026-04-20 02:38 | 42.89964 | -88.85317 | 9001 ft | 254 kts | 287° |
| 2026-04-20 02:38 | 42.90376 | -88.87431 | 8645 ft | 254 kts | 287° |
| 2026-04-20 02:38 | 42.90778 | -88.89501 | 8314 ft | 252 kts | 287° |
| 2026-04-20 02:38 | 42.91174 | -88.91541 | 7990 ft | 251 kts | 287° |
| 2026-04-20 02:39 | 42.91576 | -88.93620 | 7663 ft | 250 kts | 287° |
| 2026-04-20 02:39 | 42.91976 | -88.95691 | 7337 ft | 249 kts | 287° |
| 2026-04-20 02:39 | 42.92384 | -88.97800 | 6989 ft | 249 kts | 287° |
| 2026-04-20 02:39 | 42.92788 | -88.99902 | 6603 ft | 249 kts | 287° |
| 2026-04-20 02:40 | 42.93192 | -89.02007 | 6226 ft | 250 kts | 288° |
| 2026-04-20 02:40 | 42.93599 | -89.04129 | 5885 ft | 249 kts | 288° |
| 2026-04-20 02:40 | 42.94017 | -89.06307 | 5542 ft | 247 kts | 288° |
| 2026-04-20 02:40 | 42.94421 | -89.08413 | 5200 ft | 246 kts | 288° |
| 2026-04-20 02:41 | 42.94832 | -89.10554 | 4842 ft | 246 kts | 288° |
| 2026-04-20 02:41 | 42.95242 | -89.12695 | 4503 ft | 245 kts | 288° |
| 2026-04-20 02:41 | 42.95647 | -89.14812 | 4146 ft | 244 kts | 288° |
| 2026-04-20 02:41 | 42.96046 | -89.16900 | 3802 ft | 243 kts | 288° |
| 2026-04-20 02:42 | 42.96429 | -89.18909 | 3504 ft | 242 kts | 289° |
| 2026-04-20 02:42 | 42.96798 | -89.20850 | 3349 ft | 234 kts | 289° |
| 2026-04-20 02:42 | 42.97165 | -89.22778 | 3195 ft | 227 kts | 289° |
| 2026-04-20 02:42 | 42.97522 | -89.24660 | 3042 ft | 220 kts | 289° |
| 2026-04-20 02:43 | 42.97869 | -89.26487 | 2891 ft | 214 kts | 289° |
| 2026-04-20 02:43 | 42.98203 | -89.28252 | 2750 ft | 208 kts | 289° |
| 2026-04-20 02:43 | 42.98526 | -89.29952 | 2618 ft | 202 kts | 289° |
| 2026-04-20 02:43 | 42.98842 | -89.31616 | 2480 ft | 196 kts | 289° |
| 2026-04-20 02:44 | 42.99207 | -89.33142 | 2326 ft | 187 kts | 306° |
| 2026-04-20 02:44 | 43.00072 | -89.34188 | 2169 ft | 176 kts | 339° |
| 2026-04-20 02:44 | 43.01141 | -89.34561 | 2040 ft | 170 kts | 353° |
| 2026-04-20 02:44 | 43.02220 | -89.34651 | 2013 ft | 165 kts | 358° |
| 2026-04-20 02:45 | 43.03210 | -89.34647 | 2060 ft | 149 kts | 359° |
| 2026-04-20 02:45 | 43.04057 | -89.34610 | 1995 ft | 131 kts | 360° |
| 2026-04-20 02:45 | 43.04849 | -89.34569 | 2009 ft | 129 kts | 359° |
| 2026-04-20 02:45 | 43.05635 | -89.34530 | 2005 ft | 129 kts | 358° |
| 2026-04-20 02:46 | 43.06431 | -89.34493 | 2008 ft | 129 kts | 359° |
| 2026-04-20 02:46 | 43.07206 | -89.34457 | 1979 ft | 129 kts | 359° |
| 2026-04-20 02:46 | 43.08065 | -89.34416 | 1828 ft | 128 kts | 360° |
| 2026-04-20 02:46 | 43.08828 | -89.34379 | 1639 ft | 127 kts | 360° |
| 2026-04-20 02:47 | 43.09591 | -89.34354 | 1434 ft | 125 kts | 360° |
| 2026-04-20 02:47 | 43.10341 | -89.34316 | 1308 ft | 125 kts | 1° |
| 2026-04-20 02:47 | 43.11097 | -89.34272 | 1187 ft | 124 kts | 0° |
| 2026-04-20 02:47 | 43.11831 | -89.34238 | 1066 ft | 123 kts | 0° |
| 2026-04-20 02:48 | 43.12579 | -89.34210 | 933 ft | 123 kts | 1° |
| 2026-04-20 02:48 | 43.13294 | -89.34177 | 857 ft | 112 kts | 2° |
| 2026-04-20 02:48 | 43.13840 | -89.34152 | 856 ft | 69 kts | 2° |
| 2026-04-20 02:48 | 43.14138 | -89.34137 | 856 ft | 26 kts | 0° |
| 2026-04-20 02:49 | 43.14281 | -89.34132 | 854 ft | 25 kts | 2° |
| 2026-04-20 02:49 | 43.14351 | -89.34222 | 852 ft | 15 kts | 275° |
| 2026-04-20 02:49 | 43.14324 | -89.34340 | 852 ft | 14 kts | 211° |
| 2026-04-20 02:49 | 43.14233 | -89.34353 | 852 ft | 15 kts | 179° |
| 2026-04-20 02:50 | 43.14137 | -89.34345 | 852 ft | 15 kts | 168° |
| 2026-04-20 02:50 | 43.14048 | -89.34300 | 853 ft | 15 kts | 171° |
| 2026-04-20 02:50 | 43.13949 | -89.34298 | 853 ft | 16 kts | 182° |
| 2026-04-20 02:50 | 43.13856 | -89.34302 | 855 ft | 15 kts | 182° |
| 2026-04-20 02:51 | 43.13759 | -89.34307 | 856 ft | 16 kts | 182° |
| 2026-04-20 02:51 | 43.13658 | -89.34313 | 856 ft | 17 kts | 182° |
| 2026-04-20 02:51 | 43.13568 | -89.34325 | 856 ft | 10 kts | 211° |
| 2026-04-20 02:51 | 43.13537 | -89.34398 | 856 ft | 10 kts | 225° |
| 2026-04-20 02:52 | 43.13469 | -89.34417 | 856 ft | 12 kts | 187° |
| 2026-04-20 02:52 | 43.13422 | -89.34444 | 856 ft | 6 kts | 226° |
| 2026-04-20 02:52 | 43.13415 | -89.34481 | 856 ft | 3 kts | 281° |
| 2026-04-20 02:52 | 43.13421 | -89.34506 | 856 ft | 0 kts | 289° |
| 2026-04-20 02:53 | 43.13422 | -89.34511 | 856 ft | 0 kts | 290° |